Time;durP1;ratioP1;P1;durP2;ratioP2;P2;SDS_P1;SDS_P2;PMS_P1;PMS_P2;Temp;Humidity;BMP_temperature;BMP_pressure;BME280_temperature;BME280_humidity;BME280_pressure;Samples;Min_cycle;Max_cycle;Signal;HPM_P1;HPM_P2
2023/08/26 00:00:19;;;;;;;20.10;11.40;;;;;;;16.95;100.00;100844.53;5088528;28;20475;-67
2023/08/26 00:02:44;;;;;;;20.70;9.55;;;;;;;16.88;100.00;100839.28;5088354;28;20480;-67
2023/08/26 00:05:10;;;;;;;19.05;10.40;;;;;;;16.86;100.00;100844.91;5088557;28;20036;-67
2023/08/26 00:07:35;;;;;;;18.20;9.30;;;;;;;16.86;100.00;100852.16;5088227;28;20075;-67
2023/08/26 00:10:00;;;;;;;18.02;9.52;;;;;;;16.84;100.00;100856.97;5088527;28;20047;-67
2023/08/26 00:12:26;;;;;;;21.40;11.60;;;;;;;16.81;100.00;100852.88;5088507;28;20038;-67
2023/08/26 00:14:51;;;;;;;22.25;10.65;;;;;;;16.79;100.00;100862.25;5088624;28;20028;-66
2023/08/26 00:17:18;;;;;;;18.30;10.52;;;;;;;16.75;100.00;100855.69;5088353;28;20020;-67
2023/08/26 00:19:44;;;;;;;21.38;12.57;;;;;;;16.76;100.00;100860.00;5088429;28;20382;-67
2023/08/26 00:22:10;;;;;;;20.85;9.65;;;;;;;16.72;100.00;100862.38;5088428;28;20036;-67
2023/08/26 00:24:36;;;;;;;20.33;12.00;;;;;;;16.73;100.00;100868.56;5090218;28;20024;-67
2023/08/26 00:27:02;;;;;;;20.88;11.43;;;;;;;16.67;100.00;100866.81;5091866;28;20032;-67
2023/08/26 00:29:28;;;;;;;18.33;9.05;;;;;;;16.64;100.00;100874.31;5091917;28;20073;-66
2023/08/26 00:31:53;;;;;;;19.17;9.63;;;;;;;16.59;100.00;100871.50;5091877;28;20044;-67
2023/08/26 00:34:18;;;;;;;17.73;8.23;;;;;;;16.54;100.00;100876.78;5091782;28;20036;-66
2023/08/26 00:36:44;;;;;;;21.27;9.75;;;;;;;16.47;100.00;100873.38;5091735;28;20039;-66
2023/08/26 00:39:09;;;;;;;14.75;7.32;;;;;;;16.43;100.00;100883.81;5091813;28;20024;-67
2023/08/26 00:41:35;;;;;;;16.30;8.68;;;;;;;16.39;100.00;100876.44;5091835;28;20063;-66
2023/08/26 00:44:00;;;;;;;20.50;8.88;;;;;;;16.34;100.00;100877.13;5091557;28;20433;-66
2023/08/26 00:46:25;;;;;;;16.92;9.13;;;;;;;16.32;100.00;100881.09;5091689;28;20028;-66
2023/08/26 00:48:51;;;;;;;17.05;7.90;;;;;;;16.28;100.00;100875.38;5091475;28;20020;-67
2023/08/26 00:51:17;;;;;;;20.38;9.95;;;;;;;16.27;100.00;100876.44;5090040;28;20032;-66
2023/08/26 00:53:43;;;;;;;19.58;9.43;;;;;;;16.27;100.00;100876.44;5091397;28;20023;-67
2023/08/26 00:56:08;;;;;;;15.45;8.27;;;;;;;16.27;100.00;100884.53;5091311;28;20110;-67
2023/08/26 00:58:35;;;;;;;16.58;7.53;;;;;;;16.21;100.00;100888.94;5079330;28;20047;-66
2023/08/26 01:01:01;;;;;;;12.75;7.03;;;;;;;16.12;100.00;100882.28;5071889;28;20028;-66
2023/08/26 01:03:26;;;;;;;11.45;6.70;;;;;;;16.11;100.00;100883.34;5071932;28;20032;-67
2023/08/26 01:05:51;;;;;;;11.77;6.63;;;;;;;16.09;100.00;100884.63;5071672;28;20055;-67
2023/08/26 01:08:17;;;;;;;16.35;6.07;;;;;;;16.11;100.00;100885.19;5070461;28;20051;-67
2023/08/26 01:11:11;;;;;;;12.90;5.80;;;;;;;16.05;100.00;100880.75;5071814;28;20039;-66
2023/08/26 01:14:08;;;;;;;15.88;5.43;;;;;;;16.06;100.00;100885.91;5071755;28;20032;-66
2023/08/26 01:16:35;;;;;;;9.93;5.50;;;;;;;15.98;100.00;100892.44;5069361;28;20066;-66
2023/08/26 01:19:02;;;;;;;9.80;4.80;;;;;;;15.93;100.00;100891.50;5071604;28;20028;-67
2023/08/26 01:21:50;;;;;;;10.85;5.32;;;;;;;15.96;100.00;100891.03;5090814;28;20027;-67
2023/08/26 01:24:16;;;;;;;12.63;5.03;;;;;;;15.87;100.00;100897.78;5090940;28;20023;-67
2023/08/26 01:26:41;;;;;;;10.75;4.88;;;;;;;15.78;100.00;100891.94;5090619;28;20498;-67
2023/08/26 01:29:07;;;;;;;12.30;4.65;;;;;;;15.71;100.00;100892.03;5090703;28;20041;-67
2023/08/26 01:31:36;;;;;;;7.78;4.85;;;;;;;15.62;100.00;100892.56;5090459;28;20160;-67
2023/08/26 01:34:19;;;;;;;8.32;4.35;;;;;;;15.59;100.00;100901.06;5090789;28;20104;-67
2023/08/26 01:36:45;;;;;;;6.88;4.05;;;;;;;15.48;100.00;100902.66;5089855;28;20028;-67
2023/08/26 01:39:15;;;;;;;7.80;4.30;;;;;;;15.39;100.00;100893.28;5090550;28;20028;-67
2023/08/26 01:41:50;;;;;;;7.18;3.55;;;;;;;15.31;100.00;100894.44;5093000;28;20016;-67
2023/08/26 01:44:17;;;;;;;12.43;4.65;;;;;;;15.25;100.00;100893.47;5091013;28;20043;-67
2023/08/26 01:46:44;;;;;;;8.07;3.80;;;;;;;15.18;100.00;100898.09;5090252;28;20024;-67
2023/08/26 01:49:09;;;;;;;6.82;3.40;;;;;;;15.12;100.00;100893.63;5090249;28;20036;-67
2023/08/26 01:51:35;;;;;;;12.65;4.05;;;;;;;15.07;100.00;100899.69;5090250;28;20483;-67
2023/08/26 01:54:00;;;;;;;5.28;3.03;;;;;;;15.02;100.00;100898.72;5090335;28;20042;-67
2023/08/26 01:56:26;;;;;;;8.70;3.50;;;;;;;14.95;100.00;100900.66;5090220;28;20623;-66
2023/08/26 01:58:51;;;;;;;8.00;3.92;;;;;;;14.87;100.00;100902.59;5090209;28;20036;-67
2023/08/26 02:01:16;;;;;;;6.03;3.03;;;;;;;14.82;100.00;100905.13;5090025;28;20097;-67
2023/08/26 02:03:42;;;;;;;7.57;3.63;;;;;;;14.77;100.00;100902.28;5090224;28;20036;-66
2023/08/26 02:06:07;;;;;;;10.27;3.47;;;;;;;14.73;100.00;100900.28;5089807;28;20357;-67
2023/08/26 02:08:33;;;;;;;7.68;3.10;;;;;;;14.69;100.00;100898.03;5088842;28;20051;-67
2023/08/26 02:10:58;;;;;;;4.80;3.05;;;;;;;14.64;100.00;100897.06;5089909;28;20110;-67
2023/08/26 02:13:24;;;;;;;7.85;3.17;;;;;;;14.55;100.00;100890.34;5090090;28;20020;-67
2023/08/26 02:15:50;;;;;;;7.75;3.30;;;;;;;14.58;100.00;100890.72;5089848;28;20107;-67
2023/08/26 02:18:16;;;;;;;5.68;3.15;;;;;;;14.52;100.00;100893.44;5088440;28;20123;-66
2023/08/26 02:20:45;;;;;;;7.20;3.85;;;;;;;14.47;100.00;100894.09;5089631;28;20712;-67
2023/08/26 02:23:10;;;;;;;9.68;3.30;;;;;;;14.48;100.00;100904.59;5089703;28;20506;-67
2023/08/26 02:25:38;;;;;;;7.28;3.25;;;;;;;14.49;100.00;100892.03;5089550;28;20028;-66
2023/08/26 02:28:03;;;;;;;9.88;4.25;;;;;;;14.46;100.00;100889.75;5089684;28;20157;-67
2023/08/26 02:30:29;;;;;;;7.97;2.88;;;;;;;14.40;100.00;100894.16;5089571;28;20115;-67
2023/08/26 02:32:54;;;;;;;5.35;2.45;;;;;;;14.40;100.00;100887.97;5089586;28;20028;-67
2023/08/26 02:35:20;;;;;;;10.48;3.45;;;;;;;14.36;100.00;100890.28;5089562;28;20038;-66
2023/08/26 02:37:45;;;;;;;8.48;3.05;;;;;;;14.29;100.00;100886.84;5089566;28;20109;-67
2023/08/26 02:40:10;;;;;;;5.63;3.03;;;;;;;14.27;100.00;100885.41;5089413;28;20043;-67
2023/08/26 02:42:35;;;;;;;6.65;3.63;;;;;;;14.21;100.00;100879.06;5089358;28;20237;-67
2023/08/26 02:45:01;;;;;;;3.97;3.20;;;;;;;14.14;100.00;100889.84;5089233;28;20032;-67
2023/08/26 02:47:26;;;;;;;5.45;3.13;;;;;;;14.16;100.00;100884.28;5089298;28;20158;-67
2023/08/26 02:49:52;;;;;;;5.57;2.53;;;;;;;14.13;100.00;100885.53;5089486;28;20101;-67
2023/08/26 02:52:17;;;;;;;6.10;2.83;;;;;;;14.14;100.00;100892.53;5089231;28;20059;-66
2023/08/26 02:54:43;;;;;;;4.40;2.80;;;;;;;14.11;100.00;100892.97;5088887;28;20031;-66
2023/08/26 02:57:08;;;;;;;10.02;3.97;;;;;;;14.07;100.00;100885.56;5089068;28;20056;-67
2023/08/26 02:59:33;;;;;;;3.53;2.65;;;;;;;14.03;100.00;100893.25;5089284;28;20031;-66
2023/08/26 03:02:06;;;;;;;9.38;3.25;;;;;;;14.01;100.00;100882.72;5089162;28;20028;-67
2023/08/26 03:04:32;;;;;;;5.60;2.50;;;;;;;14.00;100.00;100891.00;5080344;28;20036;-67
2023/08/26 03:06:58;;;;;;;7.40;3.10;;;;;;;13.96;100.00;100890.63;5088525;28;20518;-67
2023/08/26 03:09:25;;;;;;;9.10;3.35;;;;;;;13.99;100.00;100892.03;5088800;28;20606;-67
2023/08/26 03:11:51;;;;;;;5.97;3.67;;;;;;;13.98;100.00;100891.22;5088976;28;20111;-67
2023/08/26 03:14:16;;;;;;;7.72;3.38;;;;;;;13.97;100.00;100891.44;5089086;28;20162;-67
2023/08/26 03:16:41;;;;;;;4.70;3.38;;;;;;;13.94;100.00;100894.56;5088817;28;20106;-67
2023/08/26 03:19:07;;;;;;;9.13;4.78;;;;;;;13.93;100.00;100898.28;5087591;28;20027;-66
2023/08/26 03:21:32;;;;;;;5.20;2.42;;;;;;;13.89;100.00;100907.81;5087349;28;20075;-67
2023/08/26 03:23:58;;;;;;;6.22;2.45;;;;;;;13.85;100.00;100906.59;5089085;28;20079;-67
2023/08/26 03:26:23;;;;;;;5.65;2.78;;;;;;;13.77;100.00;100897.75;5088817;28;20467;-66
2023/08/26 03:28:49;;;;;;;4.80;2.90;;;;;;;13.74;100.00;100903.56;5088940;28;20115;-66
2023/08/26 03:31:14;;;;;;;6.80;2.42;;;;;;;13.78;100.00;100903.94;5088778;28;20024;-67
2023/08/26 03:33:40;;;;;;;7.60;2.65;;;;;;;13.76;100.00;100904.16;5088856;28;20040;-66
2023/08/26 03:36:06;;;;;;;6.75;2.88;;;;;;;13.73;100.00;100906.47;5087309;28;20452;-67
2023/08/26 03:38:33;;;;;;;4.88;3.00;;;;;;;13.70;100.00;100907.72;5088708;28;20377;-67
2023/08/26 03:41:02;;;;;;;6.78;2.40;;;;;;;13.69;100.00;100907.91;5088710;28;20020;-67
2023/08/26 03:43:28;;;;;;;6.15;2.92;;;;;;;13.65;100.00;100907.53;5088841;28;20032;-66
2023/08/26 03:45:53;;;;;;;6.90;3.25;;;;;;;13.59;100.00;100909.19;5088562;28;20039;-67
2023/08/26 03:48:18;;;;;;;3.45;2.40;;;;;;;13.55;100.00;100908.00;5088665;28;20036;-67
2023/08/26 03:50:51;;;;;;;5.03;3.13;;;;;;;13.53;100.00;100917.28;5088661;28;20028;-67
2023/08/26 03:53:17;;;;;;;9.25;2.60;;;;;;;13.49;100.00;100916.06;5088572;28;20051;-66
2023/08/26 03:55:43;;;;;;;9.13;3.28;;;;;;;13.49;100.00;100919.59;5088675;28;20056;-67
2023/08/26 03:58:08;;;;;;;7.57;3.08;;;;;;;13.48;100.00;100907.22;5088658;28;20066;-67
2023/08/26 04:00:34;;;;;;;7.93;2.42;;;;;;;13.43;100.00;100912.38;5092225;28;20529;-67
2023/08/26 04:03:00;;;;;;;4.90;2.53;;;;;;;13.45;100.00;100912.19;5092603;28;20039;-66
2023/08/26 04:05:25;;;;;;;8.18;2.90;;;;;;;13.35;100.00;100909.97;5092519;28;20039;-67
2023/08/26 04:07:50;;;;;;;3.92;2.28;;;;;;;13.37;100.00;100914.06;5092106;28;20074;-67
2023/08/26 04:10:16;;;;;;;6.13;2.80;;;;;;;13.35;100.00;100918.81;5092361;28;20114;-66
2023/08/26 04:12:41;;;;;;;8.05;3.55;;;;;;;13.31;100.00;100920.28;5093619;28;20028;-67
2023/08/26 04:15:07;;;;;;;7.75;2.67;;;;;;;13.26;100.00;100920.09;5092206;28;20024;-67
2023/08/26 04:17:32;;;;;;;7.78;2.78;;;;;;;13.25;100.00;100915.72;5092207;28;20476;-66
2023/08/26 04:19:59;;;;;;;7.07;2.80;;;;;;;13.27;100.00;100928.97;5076915;28;20064;-67
2023/08/26 04:22:24;;;;;;;8.27;2.90;;;;;;;13.24;100.00;100921.31;5091723;28;20085;-66
2023/08/26 04:24:50;;;;;;;6.55;3.33;;;;;;;13.22;100.00;100931.41;5092061;28;20036;-66
2023/08/26 04:27:16;;;;;;;9.07;2.47;;;;;;;13.19;100.00;100934.53;5091846;28;20398;-67
2023/08/26 04:29:42;;;;;;;6.57;3.75;;;;;;;13.16;100.00;100938.44;5092042;28;20028;-67
2023/08/26 04:32:07;;;;;;;5.97;2.60;;;;;;;13.16;100.00;100933.91;5091942;28;20118;-67
2023/08/26 04:34:32;;;;;;;6.43;2.63;;;;;;;13.13;100.00;100944.22;5091876;28;20391;-67
2023/08/26 04:36:58;;;;;;;5.47;3.25;;;;;;;13.15;100.00;100939.47;5091706;28;20028;-67
2023/08/26 04:39:23;;;;;;;5.32;3.72;;;;;;;13.12;100.00;100945.25;5091437;28;20118;-66
2023/08/26 04:41:48;;;;;;;2.78;2.05;;;;;;;13.10;100.00;100941.97;5089290;28;20047;-66
2023/08/26 04:44:17;;;;;;;8.73;3.40;;;;;;;13.09;100.00;100938.44;5089214;28;20076;-67
2023/08/26 04:46:43;;;;;;;8.07;2.60;;;;;;;13.10;100.00;100944.66;5090402;28;20042;-67
2023/08/26 04:49:08;;;;;;;5.47;3.05;;;;;;;13.08;100.00;100942.19;5090822;28;20036;-67
2023/08/26 04:51:33;;;;;;;7.88;3.70;;;;;;;13.09;100.00;100943.81;5090866;28;20364;-67
2023/08/26 04:53:59;;;;;;;4.70;2.42;;;;;;;13.08;100.00;100957.44;5091216;28;20024;-67
2023/08/26 04:56:24;;;;;;;6.43;3.65;;;;;;;13.08;100.00;100960.91;5090303;28;20040;-67
2023/08/26 04:58:50;;;;;;;10.23;2.60;;;;;;;13.06;100.00;100962.16;5091124;28;20027;-67
2023/08/26 05:01:15;;;;;;;8.93;3.42;;;;;;;13.04;100.00;100961.53;5090644;28;20120;-66
2023/08/26 05:03:41;;;;;;;7.00;2.55;;;;;;;13.06;100.00;100964.84;5090227;28;20134;-66
2023/08/26 05:06:07;;;;;;;6.85;3.88;;;;;;;12.98;100.00;100955.19;5089735;28;20086;-67
2023/08/26 05:08:32;;;;;;;6.50;3.03;;;;;;;13.03;100.00;100967.94;5090977;28;20499;-67
2023/08/26 05:10:57;;;;;;;5.18;2.92;;;;;;;13.03;100.00;100968.75;5089740;28;20036;-66
2023/08/26 05:13:23;;;;;;;5.68;2.63;;;;;;;13.02;100.00;100969.81;5089695;28;20029;-67
2023/08/26 05:15:48;;;;;;;5.38;2.83;;;;;;;13.04;100.00;100980.28;5090952;28;20490;-66
2023/08/26 05:18:15;;;;;;;6.82;2.45;;;;;;;13.03;100.00;100973.28;5090887;28;20035;-66
2023/08/26 05:20:44;;;;;;;5.20;2.83;;;;;;;13.03;100.00;100975.97;5090678;28;20031;-67
2023/08/26 05:23:11;;;;;;;7.90;2.65;;;;;;;13.04;100.00;100977.59;5090866;28;20099;-67
2023/08/26 05:25:36;;;;;;;8.38;3.17;;;;;;;13.04;100.00;100982.97;5090735;28;20058;-66
2023/08/26 05:28:04;;;;;;;6.88;2.85;;;;;;;13.11;100.00;100981.91;5089238;28;20036;-67
2023/08/26 05:30:29;;;;;;;6.65;2.80;;;;;;;13.13;100.00;100985.22;5076403;28;20028;-66
2023/08/26 05:32:55;;;;;;;5.85;2.85;;;;;;;13.16;100.00;100982.09;5071089;28;20039;-67
2023/08/26 05:35:20;;;;;;;4.53;2.60;;;;;;;13.25;100.00;100980.00;5071288;28;20032;-67
2023/08/26 05:37:45;;;;;;;6.00;2.50;;;;;;;13.37;100.00;100977.53;5071031;28;20031;-67
2023/08/26 05:40:12;;;;;;;8.00;2.60;;;;;;;13.42;100.00;100980.41;5069766;28;20032;-67
2023/08/26 05:42:38;;;;;;;4.88;2.92;;;;;;;13.47;100.00;100975.25;5090312;28;20356;-67
2023/08/26 05:45:08;;;;;;;5.80;2.90;;;;;;;13.52;100.00;100980.78;5088737;28;20039;-67
2023/08/26 05:47:34;;;;;;;5.95;2.80;;;;;;;13.55;100.00;100980.34;5089971;28;20042;-66
2023/08/26 05:49:59;;;;;;;6.18;2.50;;;;;;;13.57;100.00;100975.63;5090250;28;20122;-67
2023/08/26 05:52:25;;;;;;;6.20;2.35;;;;;;;13.63;100.00;100967.75;5073903;28;20036;-66
2023/08/26 05:54:51;;;;;;;5.28;2.35;;;;;;;13.67;100.00;100961.72;5069418;28;20622;-67
2023/08/26 05:57:16;;;;;;;7.57;2.70;;;;;;;13.73;100.00;100968.94;5089952;28;20028;-67
2023/08/26 05:59:41;;;;;;;5.68;2.17;;;;;;;13.78;100.00;100969.13;5090056;28;20032;-67
2023/08/26 06:02:08;;;;;;;7.45;3.42;;;;;;;13.82;100.00;100967.63;5090097;28;20149;-67
2023/08/26 06:04:34;;;;;;;9.15;3.95;;;;;;;13.86;100.00;100969.88;5089878;28;20046;-67
2023/08/26 06:06:59;;;;;;;6.32;2.40;;;;;;;13.90;100.00;100963.06;5089890;28;20024;-67
2023/08/26 06:09:25;;;;;;;5.93;2.10;;;;;;;13.97;100.00;100970.03;5089918;28;20048;-66
2023/08/26 06:11:50;;;;;;;9.25;2.63;;;;;;;14.00;100.00;100968.78;5089703;28;20056;-67
2023/08/26 06:14:16;;;;;;;7.63;2.53;;;;;;;14.04;100.00;100964.59;5089929;28;20502;-67
2023/08/26 06:16:41;;;;;;;5.93;2.38;;;;;;;14.05;100.00;100960.09;5089863;28;20098;-67
2023/08/26 06:19:07;;;;;;;7.35;3.10;;;;;;;14.09;100.00;100963.97;5089629;28;20038;-67
2023/08/26 06:21:32;;;;;;;6.05;2.53;;;;;;;14.15;100.00;100963.94;5089242;28;20032;-67
2023/08/26 06:23:58;;;;;;;6.15;2.95;;;;;;;14.20;100.00;100972.16;5089472;28;20032;-66
2023/08/26 06:26:23;;;;;;;4.93;2.47;;;;;;;14.18;100.00;100962.66;5079275;28;20056;-67
2023/08/26 06:28:49;;;;;;;6.82;2.95;;;;;;;14.31;100.00;100967.94;5070134;28;20028;-67
2023/08/26 06:31:14;;;;;;;11.40;3.83;;;;;;;14.35;100.00;100963.75;5083036;28;20115;-67
2023/08/26 06:33:40;;;;;;;6.40;3.13;;;;;;;14.38;100.00;100959.81;5081283;28;20028;-67
2023/08/26 06:36:07;;;;;;;6.47;2.90;;;;;;;14.39;100.00;100969.53;5084982;28;20111;-66
2023/08/26 06:38:32;;;;;;;5.50;2.55;;;;;;;14.43;100.00;100965.34;5089358;28;20028;-66
2023/08/26 06:40:58;;;;;;;9.93;2.80;;;;;;;14.50;100.00;100976.03;5089323;28;20039;-67
2023/08/26 06:43:24;;;;;;;8.75;2.35;;;;;;;14.52;100.00;100968.59;5089255;28;20054;-66
2023/08/26 06:45:50;;;;;;;10.23;3.05;;;;;;;14.58;100.00;100971.25;5089162;28;20035;-66
2023/08/26 06:48:16;;;;;;;7.68;3.45;;;;;;;14.61;100.00;100967.28;5089299;28;20028;-67
2023/08/26 06:50:46;;;;;;;7.25;2.78;;;;;;;14.66;100.00;100970.94;5069518;28;20063;-66
2023/08/26 06:53:11;;;;;;;6.25;2.70;;;;;;;14.72;100.00;100979.16;5088973;28;20032;-66
2023/08/26 06:55:37;;;;;;;7.72;3.58;;;;;;;14.76;100.00;100967.78;5089215;28;20032;-66
2023/08/26 06:58:02;;;;;;;6.40;2.40;;;;;;;14.83;100.00;100971.22;5089045;28;20380;-66
2023/08/26 07:00:28;;;;;;;4.68;2.78;;;;;;;14.82;100.00;100958.81;5088933;28;20095;-67
2023/08/26 07:02:53;;;;;;;4.10;2.45;;;;;;;14.95;100.00;100963.25;5087671;28;20038;-68
2023/08/26 07:05:18;;;;;;;6.30;2.33;;;;;;;14.93;100.00;100959.13;5088822;28;20126;-67
2023/08/26 07:07:44;;;;;;;7.78;3.33;;;;;;;15.03;100.00;100970.19;5087234;28;20036;-67
2023/08/26 07:10:10;;;;;;;5.80;2.30;;;;;;;15.11;100.00;100959.13;5088900;28;20047;-68
2023/08/26 07:12:36;;;;;;;6.90;3.40;;;;;;;15.14;100.00;100950.63;5088808;28;20513;-66
2023/08/26 07:15:03;;;;;;;7.43;2.40;;;;;;;15.20;100.00;100957.00;5088775;28;20093;-67
2023/08/26 07:17:28;;;;;;;7.88;2.65;;;;;;;15.27;100.00;100965.78;5088683;28;20442;-67
2023/08/26 07:19:53;;;;;;;5.25;2.17;;;;;;;15.31;100.00;100965.09;5087844;28;20028;-67
2023/08/26 07:22:19;;;;;;;5.30;2.42;;;;;;;15.41;100.00;100969.97;5087283;28;20454;-66
2023/08/26 07:24:45;;;;;;;4.95;2.15;;;;;;;15.46;100.00;100974.66;5085910;28;20032;-67
2023/08/26 07:27:10;;;;;;;3.97;2.03;;;;;;;15.50;100.00;100973.16;5069278;28;20511;-66
2023/08/26 07:29:37;;;;;;;5.65;2.28;;;;;;;15.59;100.00;100982.56;5069405;28;20085;-67
2023/08/26 07:32:04;;;;;;;7.82;2.78;;;;;;;15.67;100.00;100976.88;5083959;28;20068;-66
2023/08/26 07:34:30;;;;;;;9.90;3.53;;;;;;;15.74;100.00;100974.09;5071264;28;20032;-67
2023/08/26 07:36:55;;;;;;;9.40;2.88;;;;;;;15.78;100.00;100972.63;5073306;28;20029;-67
2023/08/26 07:39:21;;;;;;;4.55;2.95;;;;;;;15.82;100.00;100971.09;5073416;28;20115;-67
2023/08/26 07:41:46;;;;;;;6.00;2.58;;;;;;;15.89;100.00;100977.19;5092501;28;20074;-66
2023/08/26 07:44:12;;;;;;;4.57;2.85;;;;;;;15.96;100.00;100985.19;5091395;28;20028;-66
2023/08/26 07:46:37;;;;;;;6.53;2.17;;;;;;;16.05;100.00;100972.22;5092556;28;20032;-67
2023/08/26 07:49:04;;;;;;;8.70;2.35;;;;;;;16.11;100.00;100982.91;5092602;28;20578;-67
2023/08/26 07:51:29;;;;;;;8.25;2.15;;;;;;;16.18;100.00;100975.53;5092408;28;20036;-67
2023/08/26 07:53:54;;;;;;;4.45;2.47;;;;;;;16.25;100.00;100982.69;5087495;28;20025;-67
2023/08/26 07:56:20;;;;;;;2.50;1.90;;;;;;;16.29;100.00;100976.59;5073052;28;20039;-67
2023/08/26 07:58:45;;;;;;;5.72;2.10;;;;;;;16.33;100.00;100968.91;5072753;28;20036;-67
2023/08/26 08:01:10;;;;;;;3.03;1.90;;;;;;;16.50;100.00;100983.31;5071323;28;20043;-67
2023/08/26 08:03:36;;;;;;;6.43;2.15;;;;;;;17.44;100.00;100977.84;5072630;28;20028;-67
2023/08/26 08:06:01;;;;;;;3.95;1.95;;;;;;;18.70;100.00;100997.63;5072194;28;20100;-66
2023/08/26 08:08:26;;;;;;;6.28;1.90;;;;;;;19.52;94.24;100996.88;5071736;28;20052;-68
2023/08/26 08:10:52;;;;;;;4.35;1.85;;;;;;;20.29;90.95;101001.22;5072332;28;20399;-67
2023/08/26 08:13:17;;;;;;;5.80;1.98;;;;;;;21.69;84.23;100998.25;5072554;28;20471;-67
2023/08/26 08:15:43;;;;;;;5.97;2.40;;;;;;;23.06;77.85;100993.97;5072645;28;20115;-67
2023/08/26 08:18:08;;;;;;;3.20;1.60;;;;;;;24.00;70.61;100989.44;5072461;28;20044;-67
2023/08/26 08:20:33;;;;;;;5.03;1.90;;;;;;;24.79;68.06;100986.59;5071458;28;20035;-67
2023/08/26 08:22:59;;;;;;;2.45;1.55;;;;;;;24.84;65.59;100983.81;5071718;28;20455;-67
2023/08/26 08:25:24;;;;;;;3.90;1.65;;;;;;;24.66;65.26;100979.09;5071746;28;20973;-68
2023/08/26 08:27:50;;;;;;;3.70;1.23;;;;;;;25.08;63.08;100983.00;5071867;28;20048;-67
2023/08/26 08:30:15;;;;;;;5.45;1.92;;;;;;;25.60;61.93;100975.81;5071753;28;20039;-68
2023/08/26 08:32:40;;;;;;;4.20;1.15;;;;;;;26.05;59.80;100970.81;5071017;28;20044;-67
2023/08/26 08:35:07;;;;;;;6.50;1.88;;;;;;;26.29;59.10;100978.06;5072311;28;20032;-67
2023/08/26 08:37:33;;;;;;;6.93;2.20;;;;;;;26.38;60.07;100970.78;5072231;28;20020;-68
2023/08/26 08:39:59;;;;;;;3.38;1.20;;;;;;;26.02;57.66;100977.69;5091325;28;20032;-68
2023/08/26 08:42:25;;;;;;;1.33;1.20;;;;;;;25.56;58.90;100959.19;5091632;28;20032;-68
2023/08/26 08:44:50;;;;;;;2.97;1.30;;;;;;;24.98;61.35;100967.56;5091157;28;20486;-68
2023/08/26 08:47:16;;;;;;;4.05;1.50;;;;;;;23.72;65.82;100958.28;5091379;28;20035;-68
2023/08/26 08:49:43;;;;;;;5.03;1.85;;;;;;;22.57;70.31;100970.13;5091418;28;20085;-68
2023/08/26 08:52:10;;;;;;;3.28;1.35;;;;;;;21.76;75.36;100964.34;5089744;28;20073;-68
2023/08/26 08:54:36;;;;;;;2.70;1.70;;;;;;;21.19;77.04;100965.22;5081799;28;20048;-68
2023/08/26 08:57:06;;;;;;;4.47;1.63;;;;;;;20.77;78.89;100980.44;5071671;28;20032;-68
2023/08/26 08:59:35;;;;;;;3.97;1.65;;;;;;;20.55;84.20;100975.16;5091220;28;20567;-67
2023/08/26 09:02:02;;;;;;;3.38;1.30;;;;;;;20.25;82.78;100977.59;5090903;28;20028;-67
2023/08/26 09:04:28;;;;;;;2.28;1.23;;;;;;;20.07;83.22;100986.94;5091071;28;20117;-68
2023/08/26 09:06:54;;;;;;;4.53;1.50;;;;;;;19.99;86.17;100985.50;5091014;28;20043;-68
2023/08/26 09:09:20;;;;;;;8.90;1.60;;;;;;;19.91;87.77;100986.78;5071417;28;20047;-67
2023/08/26 09:11:49;;;;;;;4.18;1.20;;;;;;;19.91;86.53;100989.50;5091042;28;20383;-67
2023/08/26 09:14:15;;;;;;;8.45;1.80;;;;;;;19.82;84.16;100976.66;5092382;28;20087;-68
2023/08/26 09:16:42;;;;;;;5.03;1.23;;;;;;;19.75;85.55;100990.38;5089459;28;20115;-67
2023/08/26 09:19:09;;;;;;;7.03;1.85;;;;;;;19.73;88.26;100989.00;5090860;28;20115;-67
2023/08/26 09:21:43;;;;;;;2.95;1.15;;;;;;;19.74;87.50;100979.84;5090904;28;20084;-67
2023/08/26 09:24:15;;;;;;;3.15;1.38;;;;;;;19.86;87.94;100986.75;5090781;28;20020;-67
2023/08/26 09:26:41;;;;;;;4.00;1.17;;;;;;;19.82;87.33;100979.38;5090442;28;20115;-67
2023/08/26 09:29:27;;;;;;;1.30;1.15;;;;;;;20.12;89.84;100987.81;5090645;28;20119;-67
2023/08/26 09:31:53;;;;;;;2.95;0.90;;;;;;;20.27;84.42;100978.97;5070945;28;20139;-68
2023/08/26 09:34:37;;;;;;;2.95;1.20;;;;;;;20.12;84.30;100989.66;5071284;28;20111;-68
2023/08/26 09:37:03;;;;;;;3.85;1.50;;;;;;;19.96;83.29;100996.03;5090287;28;20024;-72
2023/08/26 09:39:29;;;;;;;7.30;1.48;;;;;;;19.98;86.80;100991.16;5074960;28;20115;-68
2023/08/26 09:41:56;;;;;;;2.55;1.60;;;;;;;19.92;84.17;100987.59;5070830;28;20162;-67
2023/08/26 09:44:23;;;;;;;1.58;0.88;;;;;;;19.90;85.02;100992.44;5090401;28;20531;-67
2023/08/26 09:46:49;;;;;;;2.17;1.38;;;;;;;19.87;86.03;100995.66;5090183;28;20035;-67
2023/08/26 09:49:17;;;;;;;3.15;1.13;;;;;;;19.91;82.71;100996.78;5090243;28;20055;-67
2023/08/26 09:51:47;;;;;;;6.40;1.45;;;;;;;19.71;83.24;100989.28;5090161;28;20047;-68
2023/08/26 09:54:17;;;;;;;3.15;1.80;;;;;;;19.61;85.48;100999.94;5090109;28;20071;-67
2023/08/26 09:56:44;;;;;;;2.42;1.35;;;;;;;19.77;85.96;100995.56;5089408;28;20019;-67
2023/08/26 09:59:10;;;;;;;3.58;1.10;;;;;;;19.95;nan;100997.09;5089923;28;20061;-67
2023/08/26 10:01:38;;;;;;;1.45;1.30;;;;;;;20.00;84.20;100987.13;5090037;28;20040;-67
2023/08/26 10:04:04;;;;;;;3.42;1.73;;;;;;;20.13;81.70;101005.66;5089751;28;20424;-67
2023/08/26 10:06:33;;;;;;;2.55;1.27;;;;;;;20.25;82.24;100999.25;5089717;28;20037;-67
2023/08/26 10:09:06;;;;;;;3.03;1.08;;;;;;;20.20;78.66;101001.94;5089453;28;20044;-68
2023/08/26 10:11:37;;;;;;;5.95;1.63;;;;;;;20.11;81.12;101007.00;5089585;28;20039;-67
2023/08/26 10:14:04;;;;;;;2.53;1.42;;;;;;;20.12;80.69;101000.50;5089782;28;20510;-67
2023/08/26 10:16:31;;;;;;;1.98;1.13;;;;;;;20.25;81.64;100999.25;5089207;28;20110;-66
2023/08/26 10:18:59;;;;;;;1.58;1.42;;;;;;;20.30;78.44;101004.72;5089793;28;20027;-68
2023/08/26 10:21:25;;;;;;;4.78;1.92;;;;;;;20.42;78.00;101001.84;5089429;28;20074;-68
2023/08/26 10:23:50;;;;;;;3.50;1.45;;;;;;;20.26;77.76;101006.34;5089239;28;20077;-68
2023/08/26 10:26:19;;;;;;;10.93;1.95;;;;;;;20.09;79.24;101001.03;5087893;28;20044;-67
2023/08/26 10:28:47;;;;;;;2.08;1.13;;;;;;;19.98;81.10;101002.00;5089190;28;20076;-68
2023/08/26 10:31:14;;;;;;;3.17;1.60;;;;;;;19.89;79.87;101005.16;5089145;28;20027;-68
2023/08/26 10:34:06;;;;;;;4.03;2.17;;;;;;;19.91;82.83;101007.59;5089403;28;20046;-68
2023/08/26 10:36:40;;;;;;;3.40;1.48;;;;;;;19.87;83.75;101003.78;5089317;28;20333;-68
2023/08/26 10:39:16;;;;;;;1.65;1.20;;;;;;;20.06;82.60;101001.53;5089532;28;20040;-68
2023/08/26 10:42:12;;;;;;;4.32;1.52;;;;;;;20.18;83.86;101002.19;5069812;28;20043;-68
2023/08/26 10:44:40;;;;;;;3.45;1.45;;;;;;;19.95;83.03;101000.63;5089084;28;20032;-68
2023/08/26 10:47:06;;;;;;;3.08;1.80;;;;;;;20.00;79.23;101005.28;5089093;28;20502;-67
2023/08/26 10:49:31;;;;;;;6.57;2.20;;;;;;;20.22;81.78;101003.31;5089004;28;20063;-67
2023/08/26 10:52:17;;;;;;;3.53;1.48;;;;;;;20.39;83.60;100996.97;5088705;28;20055;-68
2023/08/26 10:54:45;;;;;;;5.63;1.70;;;;;;;20.48;79.29;100988.06;5088987;28;20038;-68
2023/08/26 10:57:11;;;;;;;2.10;1.67;;;;;;;20.69;81.57;100978.22;5088804;28;20031;-68
2023/08/26 10:59:39;;;;;;;1.63;1.15;;;;;;;20.85;77.73;100984.56;5089083;28;20035;-68
2023/08/26 11:02:11;;;;;;;2.30;1.02;;;;;;;20.92;77.19;100985.16;5088765;28;20391;-68
2023/08/26 11:04:43;;;;;;;;;;;;;;;21.02;79.28;100987.94;5088085;28;20028;-67
2023/08/26 11:07:19;;;;;;;3.20;1.13;;;;;;;20.58;78.17;100980.06;5088512;28;20475;-68
2023/08/26 11:09:45;;;;;;;3.05;1.48;;;;;;;20.60;79.09;100979.81;5087891;28;20043;-68
2023/08/26 11:12:27;;;;;;;2.15;1.20;;;;;;;20.83;82.97;100977.78;5088653;28;20098;-68
2023/08/26 11:15:02;;;;;;;3.83;1.23;;;;;;;20.99;78.43;100982.22;5068968;28;20017;-68
2023/08/26 11:17:28;;;;;;;3.67;1.10;;;;;;;21.12;78.73;100972.81;5088621;28;20044;-67